PLB weather

CLOSED Clinton County Airport
Plattsburgh, New York, United States

Public forecast

Using degrees Fahrenheit for public forecast. Weather courtesy of forecast.io.

Closest aviation weather report (METAR) to Clinton County Airport

Closest report is Plattsburgh International Airport, 3.3 nm (6.0 km) SE. Retrieved 2020/05/26 04:53 UTC (1 hour ago):

KPBG 260453Z AUTO 00000KT 10SM BKN048 15/14 A3009 RMK AO2 SLP189 T01500144 402330128

Closest aviation forecast (TAF) to Clinton County Airport

Closest forecast is Plattsburgh International Airport, 3.3 nm (6.0 km) SE. Retrieved 2020-05-26 00:42 UTC (5 hours ago):

TAF TAF KPBG 252339Z 2600/2624 VRB03KT P6SM FEW070 SCT250 FM261300 14009KT P6SM FEW070